• Join FlightAware (Why Join?)
  • Login
  • US Flag GB Flag 
06:57 EST


 

Airport Tracker/Info


-or-


 

Live Flight TrackerFlight Track Log ✈ DAL1903 ✈ 06-Apr-2013 ✈ KSRQ - KLGA

Flight Track Log - Related Links

Times and Time Zones

All times are in EDT time to prevent confusion due to time zone crossing. See the DAL1903 flight status page for this flight to view local times or setup timezone preferences in your user account.

Time Position Orientation Groundspeed Altitude Reporting Facility
EDT Latitude Longitude Course Direction KTS MPH feet Rate Location/Type
13:48 27.3833 -82.5333 138° Southeast 173 199 1,100  Level Tampa TRACON
13:49 27.3333 -82.4833 138° Southeast 228 262 2,900 1,955 Climbing Tampa TRACON
13:50 27.2667 -82.5167 204° Southwest 281 323 5,400 2,581 Climbing Tampa TRACON
13:52 27.3044 -82.6758 285° West 260 299 10,600 2,112 Climbing Miami Center
13:53 27.3653 -82.7186 328° Northwest 444 511 11,700 1,600 Climbing Miami Center
13:54 27.4639 -82.8078 321° Northwest 420 483 13,800 2,150 Climbing Miami Center
13:55 27.5350 -82.9028 310° West 402 463 16,000 2,100 Climbing Miami Center
13:56 27.6453 -82.9156 354° North 361 415 18,000 1,816 Climbing Miami Center
13:57 27.8139 -82.8269 25° Northeast 410 472 20,600 1,539 Climbing Jacksonville Center
13:58 27.9328 -82.7869 17° North 425 489 21,900 700 Climbing Jacksonville Center
13:59 28.0392 -82.7867 360° North 430 495 22,000 550 Climbing Jacksonville Center
14:00 28.1644 -82.7867 360° North 430 495 23,000 1,300 Climbing Jacksonville Center
14:01 28.2897 -82.7864 360° North 441 507 24,600 1,650 Climbing Jacksonville Center
14:02 28.4169 -82.7839 North 441 507 26,300 1,650 Climbing Jacksonville Center
14:03 28.5422 -82.7719 North 441 507 27,900 1,500 Climbing Jacksonville Center
14:04 28.6653 -82.7625 North 441 507 29,300 1,450 Climbing Jacksonville Center
14:05 28.7967 -82.7481 North 441 507 30,800 1,300 Climbing Jacksonville Center
14:06 28.9178 -82.7383 North 441 507 31,900 600 Climbing Jacksonville Center
14:07 29.0367 -82.7264 North 436 502 32,000 50 Climbing Jacksonville Center
14:08 29.1578 -82.7167 North 436 502 32,000  Level Jacksonville Center
14:09 29.2767 -82.7044 North 430 495 32,000  Level Jacksonville Center
14:10 29.3958 -82.6922 North 425 489 32,000  Level Jacksonville Center
14:11 29.5189 -82.6944 359° North 425 489 32,000  Level Jacksonville Center
14:12 29.6381 -82.6942 360° North 425 489 32,000  Level Jacksonville Center
14:13 29.7444 -82.6942 360° North 420 483 32,000 450 Level Jacksonville Center
14:14 29.8633 -82.6914 North 420 483 32,900 500 Climbing Jacksonville Center
14:15 29.9825 -82.6911 360° North 420 483 33,000 50 Climbing Jacksonville Center
14:16 30.0994 -82.6886 North 420 483 33,000  Level Jacksonville Center
14:17 30.2183 -82.6858 North 420 483 33,000  Level Jacksonville Center
14:18 30.3372 -82.6856 360° North 420 483 33,000  Level Jacksonville Center
14:19 30.4564 -82.6853 360° North 420 483 33,000  Level Jacksonville Center
14:20 30.5711 -82.6561 12° North 420 483 33,000  Level Jacksonville Center
14:21 30.6858 -82.6003 23° Northeast 415 478 33,000  Level Jacksonville Center
14:22 30.7983 -82.5467 22° Northeast 425 489 33,000  Level Jacksonville Center
14:23 30.9089 -82.4906 24° Northeast 430 495 33,000  Level Jacksonville Center
14:24 31.0236 -82.4319 24° Northeast 436 502 33,000  Level Jacksonville Center
14:25 31.1383 -82.3806 21° North 436 502 33,000  Level Jacksonville Center
14:26 31.2528 -82.3264 22° Northeast 436 502 33,000  Level Jacksonville Center
14:27 31.3653 -82.2697 23° Northeast 431 496 33,000  Level Jacksonville Center
14:28 31.4800 -82.2178 21° North 436 502 33,000  Level Jacksonville Center
14:29 31.5922 -82.1608 23° Northeast 436 502 33,000  Level Jacksonville Center
14:30 31.7131 -82.0939 25° Northeast 430 495 33,000  Level Jacksonville Center
14:31 31.8150 -82.0467 21° North 433 498 33,000  Level Jacksonville Center
14:32 31.9378 -81.9842 23° Northeast 428 493 33,000  Level Jacksonville Center
14:33 32.0417 -81.9072 32° Northeast 437 503 33,000  Level Jacksonville Center
14:34 32.1244 -81.8206 42° Northeast 445 512 33,000  Level Jacksonville Center
14:35 32.2342 -81.7236 37° Northeast 445 512 33,000  Level Jacksonville Center
14:36 32.3294 -81.6486 34° Northeast 445 512 33,000  Level Jacksonville Center
14:37 32.4456 -81.5608 33° Northeast 440 506 33,000  Level Jacksonville Center
14:38 32.5492 -81.4803 33° Northeast 440 506 33,000  Level Jacksonville Center
14:39 32.6422 -81.4122 32° Northeast 440 506 33,000  Level Jacksonville Center
14:40 32.7558 -81.3192 35° Northeast 445 512 33,000  Level Jacksonville Center
14:41 32.8614 -81.2356 34° Northeast 445 512 33,000  Level Jacksonville Center
14:42 32.9667 -81.1569 32° Northeast 445 512 33,000  Level Jacksonville Center
14:43 33.0575 -81.0858 33° Northeast 439 505 33,000  Level Jacksonville Center
14:44 33.1606 -81.0017 34° Northeast 439 505 33,000  Level Jacksonville Center
14:45 33.2658 -80.9200 33° Northeast 439 505 33,000  Level Jacksonville Center
14:46 33.3689 -80.8383 33° Northeast 439 505 33,000  Level Jacksonville Center
14:47 33.4739 -80.7561 33° Northeast 439 505 33,000  Level Jacksonville Center
14:48 33.5769 -80.6764 33° Northeast 439 505 33,000  Level Jacksonville Center
14:49 33.6797 -80.5939 34° Northeast 439 505 33,000  Level Jacksonville Center
14:50 33.7847 -80.5086 34° Northeast 439 505 33,000  Level Jacksonville Center
14:51 33.8875 -80.4258 34° Northeast 439 505 33,000  Level Jacksonville Center
14:52 33.9922 -80.3428 33° Northeast 439 505 33,000  Level Jacksonville Center
14:53 34.0947 -80.2594 34° Northeast 439 505 33,000  Level Jacksonville Center
14:54 34.1975 -80.1786 33° Northeast 439 505 33,000  Level Jacksonville Center
14:55 34.2997 -80.0925 35° Northeast 439 505 33,000  Level Jacksonville Center
14:57 34.4958 -79.9311 34° Northeast 444 511 33,000  Level Washington Center
14:58 34.5989 -79.8458 34° Northeast 444 511 33,000  Level Washington Center
14:59 34.7019 -79.7653 33° Northeast 444 511 33,000  Level Washington Center
15:00 34.8028 -79.6819 34° Northeast 439 505 33,000  Level Washington Center
15:01 34.9058 -79.5958 34° Northeast 439 505 33,000  Level Washington Center
15:02 35.0089 -79.5122 34° Northeast 439 505 33,000  Level Washington Center
15:03 35.1117 -79.4286 34° Northeast 439 505 33,000  Level Washington Center
15:04 35.2125 -79.3417 35° Northeast 439 505 33,000  Level Washington Center
15:05 35.3283 -79.2478 33° Northeast 439 505 33,000  Level Washington Center
15:06 35.4289 -79.1606 35° Northeast 445 512 33,000  Level Washington Center
15:07 35.5231 -79.0833 34° Northeast 445 512 33,000  Level Washington Center
15:08 35.6236 -78.9981 35° Northeast 445 512 33,000  Level Washington Center
15:09 35.7261 -78.9106 35° Northeast 445 512 33,000  Level Washington Center
15:10 35.8308 -78.8253 33° Northeast 450 518 33,000  Level Washington Center
15:11 35.9333 -78.7344 36° Northeast 450 518 33,000  Level Washington Center
15:12 36.0336 -78.6486 35° Northeast 450 518 33,000  Level Washington Center
15:13 36.1339 -78.5572 36° Northeast 450 518 33,000  Level Washington Center
15:14 36.2364 -78.4658 36° Northeast 450 518 33,000  Level Washington Center
15:15 36.3386 -78.3769 35° Northeast 450 518 33,000  Level Washington Center
15:16 36.4386 -78.2900 35° Northeast 450 518 33,000  Level Washington Center
15:17 36.5389 -78.1953 37° Northeast 445 512 33,000 350 Level Washington Center
15:18 36.6347 -78.1000 39° Northeast 445 512 33,700 750 Climbing Washington Center
15:19 36.7308 -77.9969 41° Northeast 445 512 34,500 650 Climbing Washington Center
15:20 36.8372 -77.8911 39° Northeast 445 512 35,000 250 Climbing Washington Center
15:21 36.9222 -77.8106 37° Northeast 437 503 35,000  Level Washington Center
15:22 37.0303 -77.7044 38° Northeast 437 503 35,000  Level Washington Center
15:23 37.1133 -77.6156 40° Northeast 432 497 35,000  Level Washington Center
15:24 37.2194 -77.5089 39° Northeast 437 503 35,000  Level Washington Center
15:25 37.3064 -77.4197 39° Northeast 442 509 35,000  Level Washington Center
15:26 37.4100 -77.3097 40° Northeast 442 509 35,000  Level Washington Center
15:27 37.5094 -77.2072 39° Northeast 442 509 35,000  Level Washington Center
15:28 37.5961 -77.1200 39° Northeast 442 509 35,000  Level Washington Center
15:29 37.6997 -77.0117 40° Northeast 442 509 35,000  Level Washington Center
15:30 37.7864 -76.9214 39° Northeast 442 509 35,000  Level Washington Center
15:31 37.8939 -76.8100 39° Northeast 442 509 35,000  Level Washington Center
15:32 37.9803 -76.7219 39° Northeast 442 509 35,000  Level Washington Center
15:33 38.0897 -76.6100 39° Northeast 448 516 35,000  Level Washington Center
15:34 38.1842 -76.5111 39° Northeast 453 521 35,000  Level Washington Center
15:35 38.2831 -76.4064 40° Northeast 453 521 35,000  Level Washington Center
15:36 38.3836 -76.3122 36° Northeast 453 521 35,000  Level Washington Center
15:37 38.4844 -76.2203 36° Northeast 442 509 35,000  Level Washington Center
15:38 38.5639 -76.1467 36° Northeast 442 509 35,000 -150 Level Washington Center
15:39 38.6728 -76.0436 36° Northeast 442 509 34,700 -1,400 Descending Washington Center
15:40 38.7731 -75.9483 37° Northeast 437 503 32,200 -2,700 Descending Washington Center
15:41 38.8775 -75.8531 35° Northeast 437 503 29,300 -2,800 Descending Washington Center
15:42 38.9778 -75.7572 37° Northeast 448 516 26,600 -1,850 Descending Washington Center
15:43 39.0800 -75.6639 35° Northeast 448 516 25,600 -1,000 Descending Washington Center
15:44 39.1800 -75.5647 38° Northeast 448 516 24,600 -1,200 Descending Washington Center
15:45 39.2781 -75.4736 36° Northeast 448 516 23,200 -1,550 Descending Washington Center
15:46 39.3778 -75.3875 34° Northeast 443 510 21,500 -1,750 Descending Washington Center
15:47 39.4736 -75.3039 34° Northeast 422 486 19,700 -1,600 Descending Washington Center
15:48 39.5650 -75.2200 35° Northeast 416 479 18,300 -1,190 Descending Washington Center
15:49 39.6625 -75.1278 36° Northeast 409 471 17,300 -1,200 Descending Washington Center
15:50 39.7497 -75.0517 34° Northeast 386 444 15,900 -1,361 Descending Washington Center
15:51 39.8286 -74.9864 32° Northeast 378 435 14,600 -1,250 Descending Washington Center
15:52 39.9117 -74.9125 34° Northeast 371 427 13,400 -1,300 Descending Washington Center
15:53 39.9881 -74.8061 47° Northeast 371 427 12,000 -1,371 Descending Washington Center
15:54 40.0333 -74.7333 51° Northeast 331 381 11,000 -1,143 Descending New York TRACON
15:55 40.0833 -74.6500 52° Northeast 294 338 10,000 -500 Descending New York TRACON
15:56 40.1500 -74.5833 37° Northeast 312 359 10,000  Level New York TRACON
15:57 40.2167 -74.4833 49° Northeast 344 396 10,000  Level New York TRACON
15:58 40.2833 -74.4000 44° Northeast 339 390 10,000 -50 Level New York TRACON
15:59 40.3500 -74.3167 44° Northeast 335 386 9,900 -545 Descending New York TRACON
16:00 40.4167 -74.2500 37° Northeast 293 337 8,900 -1,091 Descending New York TRACON
16:01 40.4667 -74.1833 45° Northeast 264 304 7,700 -1,344 Descending New York TRACON
16:02 40.5333 -74.1167 37° Northeast 254 292 6,100 -1,800 Descending New York TRACON
16:03 40.5833 -74.0667 37° Northeast 269 310 4,100 -1,565 Descending New York TRACON
16:04 40.6333 -74.0167 37° Northeast 260 299 3,100 -750 Descending New York TRACON
16:05 40.7000 -73.9500 37° Northeast 238 274 2,600 -672 Descending New York TRACON
16:06 40.7333 -73.8833 57° Northeast 198 228 1,700 -864 Descending New York TRACON
16:07 40.7500 -73.8333 66° East 150 173 800 -900 Descending New York TRACON
16:09 40.7667 -73.8667 30° Northeast  Level FlightAware Approximate
16:16 40.7772 -73.8726 30° Northeast  Level Estimated